Station: Rutherglen  

  Atmospheric Gas Attenuation - ITU Rec 676-11   ----------------- dB/100km -----------------
Date Time Temp RH % AH g/m3 Dew Point Wind Direction Speed kph Gust kph Barometer mB Rainfall Since 9am 24GHz 47GHz 76GHz 122GHz 134GHz 241GHz
08/05 12:40 15.5 68 8.99 9.6 24 30 1013.1 0 20.3 26.0 40.5 106.3 101.3 349.0
08/05 12:30 15.1 73 9.42 10.3 22 28 1013.1 0 21.3 26.8 42.4 111.5 107.6 370.7
08/05 12:20 14.9 74 9.43 10.3 22 24 1013.1 0 21.3 26.9 42.6 111.9 108.0 372.1
08/05 12:10 14.5 74 9.2 9.9 22 26 1013.1 0 20.8 26.7 41.9 109.9 105.4 363.2
08/05 12:00 14.9 75 9.56 10.5 22 33 1013.1 0 21.6 27.1 43.1 113.3 109.7 378.2
08/05 11:50 14.7 76 9.57 10.5 30 32 1013.1 0 21.6 27.2 43.3 113.7 110.1 379.7
08/05 11:40 14.3 77 9.46 10.3 26 28 1013.1 0 21.4 27.1 43.0 113.1 109.2 376.4
08/05 11:30 14.2 78 9.52 10.4 24 35 1013.1 0 21.5 27.3 43.3 113.9 110.2 379.7
08/05 11:20 14 79 9.53 10.4 30 35 1013.1 0 21.6 27.4 43.5 114.3 110.6 381.2
08/05 11:10 14.1 82 9.95 11.1 24 26 1013.1 0 22.5 28.0 45.2 118.8 116.2 400.8
08/05 11:00 13.5 82 9.59 10.5 24 32 1013.1 0 21.7 27.6 44.0 115.7 112.1 386.5
08/05 10:50 13 84 9.53 10.4 17 20 1013.1 0 21.6 27.7 44.0 115.8 112.0 386.1
08/05 10:40 12.5 86 9.46 10.2 22 24 1013.1 0 21.5 27.7 44.0 115.7 111.8 385.2
08/05 10:30 12.3 87 9.45 10.2 19 26 1013.1 0 21.5 27.8 44.1 115.9 112.0 385.7
08/05 10:20 11.8 89 9.37 10 13 17 1013.1 0 21.3 27.8 44.0 115.7 111.6 384.3
08/05 10:10 11.3 90 9.18 9.7 19 22 1013.1 0 21.0 27.6 43.5 114.3 109.6 377.5
08/05 10:00 11.1 91 9.17 9.7 9 17 1013.1 0 20.9 27.7 43.6 114.5 109.8 378.0
08/05 09:50 10.9 91 9.05 9.5 11 13 1013.1 0 20.7 27.5 43.2 113.4 108.4 373.1
08/05 09:40 10.7 92 9.04 9.5 13 15 1013.1 0 20.7 27.6 43.2 113.6 108.5 373.5
08/05 09:30 10.4 92 8.87 9.2 15 20 1013.1 0 20.3 27.4 42.7 112.1 106.6 366.7
08/05 09:20 10.3 92 8.81 9.1 11 13 1013.1 0 20.2 27.3 42.5 111.6 105.9 364.2
08/05 09:10 10.2 91 8.66 8.8 15 17 1013.1 0 19.9 27.1 41.9 110.0 103.9 357.3
08/05 09:00 10.1 91 8.61 8.7 15 24 1013.1 0 19.8 27.0 41.7 109.6 103.4 355.4
08/05 08:50 10 92 8.65 8.8 19 20 1013.1 0 19.9 27.1 42.0 110.2 104.1 357.8
08/05 08:40 10 91 8.55 8.6 20 24 1013.1 0 19.7 26.9 41.5 109.1 102.7 352.9
08/05 08:30 9.9 92 8.59 8.7 17 26 1013.1 0 19.8 27.0 41.8 109.7 103.4 355.3
08/05 08:20 9.7 92 8.48 8.5 19 22 1013.1 0 19.5 26.9 41.4 108.7 102.1 350.9
08/05 08:10 9.7 92 8.48 8.5 19 20 1013.1 0 19.5 26.9 41.4 108.7 102.1 350.9
08/05 08:00 9.6 92 8.43 8.4 20 28 1013.1 0 19.4 26.9 41.2 108.3 101.5 348.9
08/05 07:50 9.5 92 8.38 8.3 17 20 1013.1 0 19.3 26.8 41.1 107.9 101.0 346.9
08/05 07:40 9.4 92 8.32 8.2 13 17 1013.1 0 19.2 26.7 40.9 107.3 100.3 344.4
08/05 07:30 9.3 91 8.18 7.9 15 20 1013.1 0 18.9 26.5 40.3 105.9 98.5 338.1
08/05 07:20 9.3 91 8.18 7.9 17 20 1013.1 0 18.9 26.5 40.3 105.9 98.5 338.1
08/05 07:10 9.3 90 8.09 7.7 17 19 1013.1 0 18.7 26.4 40.0 104.9 97.2 333.7
08/05 07:00 9.3 89 8 7.6 15 20 1013.1 0 18.5 26.2 39.6 103.9 96.0 329.4
08/05 06:50 9.2 89 7.95 7.5 15 17 1013.1 0 18.4 26.2 39.4 103.4 95.4 327.4
08/05 06:40 9.1 88 7.81 7.2 17 20 1013.1 0 18.1 26.0 38.9 102.0 93.6 321.1
08/05 06:30 9.1 88 7.81 7.2 17 20 1013.1 0 18.1 26.0 38.9 102.0 93.6 321.1
08/05 06:20 9 88 7.76 7.1 13 17 1013.1 0 18.0 25.9 38.7 101.6 93.0 319.1
08/05 06:10 9 88 7.76 7.1 15 17 1013.1 0 18.0 25.9 38.7 101.6 93.0 319.1
08/05 06:00 8.7 88 7.61 6.8 13 17 1013.1 0 17.7 25.7 38.3 100.3 91.4 313.1
08/05 05:50 8.6 86 7.39 6.4 13 17 1013.1 0 17.2 25.4 37.4 98.0 88.5 303.1
08/05 05:40 8.9 85 7.45 6.5 17 19 1013.1 0 17.3 25.4 37.5 98.3 88.9 304.7
08/05 05:30 9 85 7.5 6.6 15 22 1013.1 0 17.5 25.5 37.7 98.7 89.5 306.7
08/05 05:20 9 84 7.41 6.4 15 17 1013.1 0 17.3 25.3 37.3 97.7 88.3 302.5
08/05 05:10 9.4 83 7.51 6.7 17 20 1013.1 0 17.5 25.4 37.5 98.3 89.2 305.6
08/05 05:00 9.5 82 7.47 6.6 17 26 1013.1 0 17.4 25.3 37.3 97.8 88.5 303.4
08/05 04:50 9.7 82 7.56 6.8 20 24 1013.1 0 17.6 25.4 37.6 98.5 89.5 306.8
08/05 04:40 9.8 81 7.52 6.7 19 22 1013.1 0 17.5 25.3 37.4 97.9 88.9 304.5
08/05 04:30 9.8 81 7.52 6.7 17 22 1013.1 0 17.5 25.3 37.4 97.9 88.9 304.5
08/05 04:20 9.8 80 7.42 6.5 19 20 1013.1 0 17.2 25.1 37.0 96.8 87.5 299.9
08/05 04:10 9.8 80 7.42 6.5 15 17 1013.1 0 17.2 25.1 37.0 96.8 87.5 299.9
08/05 04:00 9.8 79 7.33 6.3 17 22 1013.1 0 17.1 25.0 36.6 95.9 86.3 295.7
08/05 03:50 9.8 78 7.24 6.2 17 20 1013.1 0 16.9 24.8 36.2 94.9 85.1 291.5
08/05 03:40 9.8 78 7.24 6.2 17 19 1013.1 0 16.9 24.8 36.2 94.9 85.1 291.5
08/05 03:30 9.9 78 7.28 6.3 19 30 1013.1 0 16.9 24.9 36.4 95.2 85.5 293.0
08/05 03:20 9.9 79 7.38 6.4 17 19 1013.1 0 17.2 25.0 36.8 96.3 86.9 297.6
08/05 03:10 9.8 79 7.33 6.3 17 19 1013.1 0 17.1 25.0 36.6 95.9 86.3 295.7
08/05 03:00 9.8 79 7.33 6.3 15 20 1013.1 0 17.1 25.0 36.6 95.9 86.3 295.7
08/05 02:50 9.9 79 7.38 6.4 15 17 1013.1 0 17.2 25.0 36.8 96.3 86.9 297.6
08/05 02:40 9.7 81 7.47 6.6 13 15 1013.1 0 17.4 25.2 37.2 97.5 88.3 302.6
08/05 02:30 9.7 80 7.38 6.4 11 17 1013.1 0 17.2 25.1 36.8 96.5 87.1 298.4
08/05 02:20 9.5 82 7.47 6.6 11 13 1013.1 0 17.4 25.3 37.3 97.8 88.5 303.4
08/05 02:10 9.5 82 7.47 6.6 13 15 1013.1 0 17.4 25.3 37.3 97.8 88.5 303.4
08/05 02:00 9.5 81 7.38 6.4 11 15 1013.1 0 17.2 25.1 36.9 96.8 87.3 299.1
08/05 01:50 9.5 81 7.38 6.4 11 13 1013.1 0 17.2 25.1 36.9 96.8 87.3 299.1
08/05 01:40 9.5 80 7.28 6.2 19 20 1013.1 0 17.0 25.0 36.5 95.7 86.0 294.4
08/05 01:30 9.5 80 7.28 6.2 15 20 1013.1 0 17.0 25.0 36.5 95.7 86.0 294.4
08/05 01:20 9.5 81 7.38 6.4 15 19 1013.1 0 17.2 25.1 36.9 96.8 87.3 299.1
08/05 01:10 9.4 81 7.33 6.3 11 13 1013.1 0 17.1 25.1 36.8 96.4 86.8 297.2
08/05 01:00 9.4 80 7.24 6.1 13 19 1013.1 0 16.9 24.9 36.4 95.4 85.6 293.0
08/05 00:50 9.5 80 7.28 6.2 15 17 1013.1 0 17.0 25.0 36.5 95.7 86.0 294.4
08/05 00:40 9.4 80 7.24 6.1 9 11 1013.1 0 16.9 24.9 36.4 95.4 85.6 293.0
08/05 00:30 9.2 82 7.32 6.3 9 13 1013.1 0 17.1 25.1 36.8 96.5 86.9 297.5
08/05 00:20 9.2 82 7.32 6.3 9 11 1013.1 0 17.1 25.1 36.8 96.5 86.9 297.5
08/05 00:10 9.2 81 7.24 6.1 9 9 1013.1 0 16.9 25.0 36.5 95.6 85.8 293.7
08/05 00:00 9.4 79 7.15 5.9 13 19 1013.1 0 16.7 24.8 36.1 94.4 84.4 288.8
07/05 23:50 9.2 81 7.24 6.1 15 17 1013.1 0 16.9 25.0 36.5 95.6 85.8 293.7
07/05 23:40 9.1 81 7.19 6 13 15 1013.1 0 16.8 24.9 36.4 95.2 85.2 291.7
07/05 23:30 9.1 81 7.19 6 13 17 1013.1 0 16.8 24.9 36.4 95.2 85.2 291.7
07/05 23:20 9 82 7.23 6.1 15 15 1013.1 0 16.9 25.0 36.6 95.8 85.9 294.0
07/05 23:10 8.8 82 7.14 5.9 13 15 1013.1 0 16.7 24.9 36.3 95.0 84.9 290.5
07/05 23:00 8.7 82 7.09 5.8 13 15 1013.1 0 16.6 24.9 36.1 94.6 84.3 288.5
07/05 22:50 8.6 84 7.22 6.1 13 15 1013.1 0 16.9 25.1 36.7 96.2 86.2 295.0
07/05 22:40 8.6 83 7.13 5.9 11 11 1013.1 0 16.7 25.0 36.3 95.2 85.0 290.8
07/05 22:30 8.5 83 7.09 5.8 11 13 1013.1 0 16.6 24.9 36.2 94.9 84.5 289.3
07/05 22:20 8.4 83 7.04 5.7 11 13 1013.1 0 16.5 24.9 36.1 94.4 84.0 287.3
07/05 22:10 8.5 82 7 5.6 11 11 1013.1 0 16.4 24.8 35.9 93.9 83.3 285.0
07/05 22:00 8.5 82 7 5.6 11 17 1013.1 0 16.4 24.8 35.9 93.9 83.3 285.0
07/05 21:50 8.4 82 6.96 5.5 11 13 1013.1 0 16.3 24.8 35.7 93.6 82.9 283.5
07/05 21:40 8.3 82 6.91 5.4 7 9 1013.1 0 16.2 24.7 35.6 93.1 82.4 281.6
07/05 21:30 8.3 82 6.91 5.4 9 13 1013.1 0 16.2 24.7 35.6 93.1 82.4 281.6
07/05 21:20 8.1 82 6.83 5.2 9 11 1013.1 0 16.0 24.6 35.3 92.5 81.5 278.5
07/05 21:10 8 83 6.86 5.3 9 11 1013.1 0 16.1 24.7 35.5 93.0 82.0 280.3
07/05 21:00 7.8 84 6.86 5.3 7 11 1013.1 0 16.1 24.8 35.6 93.2 82.2 281.0
07/05 20:50 7.3 86 6.8 5.1 7 9 1013.1 0 16.0 24.8 35.6 93.1 81.9 280.0
07/05 20:40 6.9 86 6.62 4.7 9 11 1013.1 0 15.6 24.6 35.0 91.6 79.9 272.9
07/05 20:30 6.8 83 6.35 4.1 11 15 1013.1 0 15.1 24.2 34.0 88.8 76.4 260.6
07/05 20:20 7.5 82 6.57 4.6 9 11 1013.1 0 15.5 24.4 34.6 90.4 78.7 268.5
07/05 20:10 7.5 83 6.65 4.8 11 11 1013.1 0 15.7 24.5 34.9 91.3 79.7 272.2

Last Refresh: 08-May-2026 12:09:22

Bureau of Meteorology